createdAt,value
2018-12-29T00:01:25.755Z,87.93
2018-12-29T00:03:53.524Z,87.70
2018-12-29T00:06:21.324Z,87.31
2018-12-29T00:08:49.111Z,87.46
2018-12-29T00:11:16.929Z,88.14
2018-12-29T00:13:44.725Z,87.51
2018-12-29T00:16:13.041Z,87.02
2018-12-29T00:18:40.791Z,87.25
2018-12-29T00:21:08.857Z,87.66
2018-12-29T00:23:37.153Z,87.23
2018-12-29T00:26:05.056Z,87.35
2018-12-29T00:28:33.264Z,87.33
2018-12-29T00:31:01.555Z,87.38
2018-12-29T00:33:29.312Z,87.40
2018-12-29T00:35:59.983Z,87.81
2018-12-29T00:38:28.107Z,87.54
2018-12-29T00:40:56.236Z,87.29
2018-12-29T00:43:25.220Z,87.50
2018-12-29T00:45:53.418Z,86.94
2018-12-29T00:48:21.418Z,87.09
2018-12-29T00:50:49.582Z,86.80
2018-12-29T00:53:17.326Z,87.19
2018-12-29T00:55:45.802Z,87.32
2018-12-29T00:58:13.715Z,87.33
2018-12-29T01:00:41.527Z,87.37
2018-12-29T01:03:09.704Z,87.31
2018-12-29T01:05:37.524Z,87.76
2018-12-29T01:08:05.272Z,87.94
2018-12-29T01:10:33.509Z,87.51
2018-12-29T01:13:01.408Z,87.57
2018-12-29T01:15:29.200Z,87.74
2018-12-29T01:17:57.321Z,87.63
2018-12-29T01:20:25.344Z,87.36
2018-12-29T01:22:53.047Z,87.08
2018-12-29T01:25:23.002Z,87.51
2018-12-29T01:27:50.995Z,87.77
2018-12-29T01:30:18.796Z,87.51
2018-12-29T01:32:47.063Z,87.27
2018-12-29T01:35:14.975Z,87.32
2018-12-29T01:37:43.175Z,87.47
2018-12-29T01:40:10.994Z,87.80
2018-12-29T01:42:39.335Z,87.40
2018-12-29T01:45:07.717Z,86.94
2018-12-29T01:47:35.573Z,86.77
2018-12-29T01:50:05.902Z,86.88
2018-12-29T01:52:33.698Z,86.36
2018-12-29T01:55:01.503Z,86.59
2018-12-29T01:57:29.620Z,87.02
2018-12-29T01:59:57.412Z,87.11
2018-12-29T02:02:25.348Z,86.48
2018-12-29T02:04:53.090Z,86.83
2018-12-29T02:07:20.914Z,87.06
2018-12-29T02:09:51.441Z,86.86
2018-12-29T02:12:19.246Z,87.15
2018-12-29T02:14:47.028Z,86.71
2018-12-29T02:17:15.813Z,86.43
2018-12-29T02:19:43.632Z,86.40
2018-12-29T02:22:11.416Z,86.63
2018-12-29T02:24:39.182Z,86.31
2018-12-29T02:27:06.959Z,86.34
2018-12-29T02:29:35.018Z,86.78
2018-12-29T02:32:02.962Z,86.82
2018-12-29T02:34:30.977Z,87.18
2018-12-29T02:36:58.742Z,87.34
2018-12-29T02:39:26.847Z,87.01
2018-12-29T02:41:54.786Z,86.86
2018-12-29T02:44:23.282Z,86.68
2018-12-29T02:46:51.109Z,86.28
2018-12-29T02:49:18.852Z,86.51
2018-12-29T02:51:47.167Z,86.43
2018-12-29T02:54:14.924Z,86.91
2018-12-29T02:56:42.696Z,87.16
2018-12-29T02:59:10.524Z,87.24
2018-12-29T03:01:38.266Z,86.92
2018-12-29T03:04:07.838Z,86.71
2018-12-29T03:06:35.707Z,86.38
2018-12-29T03:09:05.185Z,86.84
2018-12-29T03:11:33.039Z,86.64
2018-12-29T03:14:01.615Z,86.63
2018-12-29T03:16:29.425Z,86.42
2018-12-29T03:18:57.217Z,86.72
2018-12-29T03:21:26.989Z,86.69
2018-12-29T03:23:58.126Z,87.08
2018-12-29T03:26:26.065Z,86.62
2018-12-29T03:28:54.018Z,86.61
2018-12-29T03:31:22.255Z,86.50
2018-12-29T03:33:50.080Z,85.89
2018-12-29T03:36:18.354Z,86.57
2018-12-29T03:38:46.257Z,86.37
2018-12-29T03:41:13.996Z,86.28
2018-12-29T03:43:42.285Z,85.96
2018-12-29T03:46:10.097Z,85.86
2018-12-29T03:48:38.067Z,85.79
2018-12-29T03:51:05.921Z,86.13
2018-12-29T03:53:33.730Z,86.15
2018-12-29T03:56:01.832Z,86.40
2018-12-29T03:58:29.856Z,86.19
2018-12-29T04:00:57.718Z,86.33
2018-12-29T04:03:25.946Z,86.06
2018-12-29T04:05:53.778Z,86.26
2018-12-29T04:08:21.725Z,86.11
2018-12-29T04:10:49.493Z,86.44
2018-12-29T04:13:17.249Z,85.53
2018-12-29T04:15:45.400Z,86.20
2018-12-29T04:18:13.198Z,85.73
2018-12-29T04:20:41.573Z,85.93
2018-12-29T04:23:09.344Z,85.70
2018-12-29T04:25:37.578Z,85.89
2018-12-29T04:28:05.355Z,85.77
2018-12-29T04:30:34.091Z,85.51
2018-12-29T04:33:01.886Z,85.57
2018-12-29T04:35:30.074Z,85.81
2018-12-29T04:37:57.946Z,85.80
2018-12-29T04:40:25.932Z,85.93
2018-12-29T04:42:53.682Z,86.38
2018-12-29T04:45:21.481Z,85.68
2018-12-29T04:47:49.617Z,85.35
2018-12-29T04:50:17.512Z,85.12
2018-12-29T04:52:45.235Z,85.51
2018-12-29T04:55:13.158Z,85.55
2018-12-29T04:57:40.915Z,85.22
2018-12-29T05:00:09.127Z,84.70
2018-12-29T05:02:36.883Z,84.85
2018-12-29T05:05:05.285Z,84.97
2018-12-29T05:07:33.190Z,85.50
2018-12-29T05:10:00.973Z,86.02
2018-12-29T05:12:29.745Z,85.45
2018-12-29T05:14:57.683Z,85.86
2018-12-29T05:17:25.732Z,85.91
2018-12-29T05:19:53.783Z,86.05
2018-12-29T05:22:21.561Z,85.25
2018-12-29T05:24:49.468Z,85.04
2018-12-29T05:27:17.268Z,85.67
2018-12-29T05:29:45.014Z,85.50
2018-12-29T05:32:12.804Z,85.58
2018-12-29T05:34:40.787Z,85.12
2018-12-29T05:37:08.594Z,85.04
2018-12-29T05:39:36.462Z,85.08
2018-12-29T05:42:04.210Z,85.53
2018-12-29T05:44:32.196Z,85.29
2018-12-29T05:46:59.986Z,85.17
2018-12-29T05:49:28.344Z,85.65
2018-12-29T05:51:56.122Z,85.51
2018-12-29T05:54:24.015Z,84.93
2018-12-29T05:56:52.064Z,85.35
2018-12-29T05:59:19.816Z,85.48
2018-12-29T06:01:47.627Z,84.87
2018-12-29T06:04:15.788Z,84.71
2018-12-29T06:06:43.557Z,85.06
2018-12-29T06:09:11.404Z,84.87
2018-12-29T06:11:39.261Z,85.10
2018-12-29T06:14:07.045Z,85.31
2018-12-29T06:16:36.144Z,85.43
2018-12-29T06:19:04.120Z,85.74
2018-12-29T06:21:31.892Z,85.73
2018-12-29T06:24:01.088Z,86.19
2018-12-29T06:26:28.912Z,86.12
2018-12-29T06:28:56.668Z,86.22
2018-12-29T06:31:24.461Z,86.65
2018-12-29T06:33:52.309Z,87.32
2018-12-29T06:36:20.105Z,87.26
2018-12-29T06:38:48.087Z,86.90
2018-12-29T06:41:15.823Z,85.91
2018-12-29T06:43:43.641Z,86.07
2018-12-29T06:46:11.533Z,86.59
2018-12-29T06:48:39.294Z,86.72
2018-12-29T06:51:07.058Z,86.37
2018-12-29T06:53:34.847Z,86.83
2018-12-29T06:56:02.928Z,86.86
2018-12-29T06:58:33.525Z,86.86
2018-12-29T07:01:01.319Z,86.70
2018-12-29T07:03:29.075Z,87.21
2018-12-29T07:05:56.852Z,87.53
2018-12-29T07:08:24.713Z,87.79
2018-12-29T07:10:52.481Z,87.90
2018-12-29T07:13:20.300Z,86.79
2018-12-29T07:15:48.155Z,87.37
2018-12-29T07:18:15.938Z,86.99
2018-12-29T07:20:43.851Z,87.14
2018-12-29T07:23:12.225Z,87.54
2018-12-29T07:25:40.176Z,87.50
2018-12-29T07:28:08.337Z,87.04
2018-12-29T07:30:36.232Z,87.49
2018-12-29T07:33:06.484Z,87.26
2018-12-29T07:35:34.658Z,87.50
2018-12-29T07:38:02.448Z,87.44
2018-12-29T07:40:30.210Z,86.96
2018-12-29T07:42:58.044Z,86.56
2018-12-29T07:45:25.840Z,87.05
2018-12-29T07:47:53.665Z,86.61
2018-12-29T07:50:21.961Z,87.04
2018-12-29T07:52:52.336Z,87.06
2018-12-29T07:55:23.676Z,87.72
2018-12-29T07:57:51.636Z,87.68
2018-12-29T08:00:19.781Z,87.14
2018-12-29T08:02:47.572Z,86.96
2018-12-29T08:05:15.572Z,87.29
2018-12-29T08:07:43.524Z,87.18
2018-12-29T08:10:11.585Z,86.77
2018-12-29T08:12:39.524Z,87.41
2018-12-29T08:15:07.521Z,85.60
2018-12-29T08:17:35.283Z,85.46
2018-12-29T08:20:03.383Z,85.53
2018-12-29T08:22:31.168Z,85.65
2018-12-29T08:24:59.078Z,85.39
2018-12-29T08:27:26.831Z,85.37
2018-12-29T08:29:54.600Z,85.22
2018-12-29T08:32:22.394Z,85.27
2018-12-29T08:34:50.204Z,84.94
2018-12-29T08:37:18.007Z,85.08
2018-12-29T08:39:46.576Z,85.57
2018-12-29T08:42:14.356Z,85.97
2018-12-29T08:44:42.136Z,85.73
2018-12-29T08:47:09.910Z,85.18
2018-12-29T08:49:37.688Z,85.35
2018-12-29T08:52:05.487Z,85.53
2018-12-29T08:54:33.300Z,86.14
2018-12-29T08:57:01.129Z,85.67
2018-12-29T08:59:28.927Z,85.75
2018-12-29T09:01:56.741Z,85.93
2018-12-29T09:04:24.511Z,85.46
2018-12-29T09:06:52.277Z,85.07
2018-12-29T09:09:20.047Z,84.93
2018-12-29T09:11:47.837Z,84.88
2018-12-29T09:14:15.679Z,84.04
2018-12-29T09:16:43.464Z,83.20
2018-12-29T09:19:11.220Z,82.99
2018-12-29T09:21:39.002Z,82.90
2018-12-29T09:24:06.773Z,82.83
2018-12-29T09:26:34.634Z,82.85
2018-12-29T09:29:02.446Z,82.12
2018-12-29T09:31:30.275Z,82.23
2018-12-29T09:33:58.093Z,82.87
2018-12-29T09:36:25.876Z,81.81
2018-12-29T09:38:53.638Z,81.09
2018-12-29T09:41:21.383Z,80.80
2018-12-29T09:43:49.138Z,81.07
2018-12-29T09:46:16.936Z,81.22
2018-12-29T09:48:44.739Z,81.25
2018-12-29T09:51:12.519Z,80.16
2018-12-29T09:53:40.312Z,79.85
2018-12-29T09:56:08.096Z,79.86
2018-12-29T09:58:35.881Z,79.23
2018-12-29T10:01:03.625Z,78.31
2018-12-29T10:03:31.370Z,78.92
2018-12-29T10:05:59.157Z,77.34
2018-12-29T10:08:26.914Z,77.43
2018-12-29T10:10:54.698Z,77.70
2018-12-29T10:13:22.476Z,78.43
2018-12-29T10:15:50.314Z,78.44
2018-12-29T10:18:18.104Z,78.86
2018-12-29T10:20:47.124Z,78.53
2018-12-29T10:23:14.900Z,75.46
2018-12-29T10:25:42.730Z,75.58
2018-12-29T10:28:10.496Z,74.84
2018-12-29T10:30:38.403Z,73.33
2018-12-29T10:33:06.317Z,72.60
2018-12-29T10:35:34.080Z,70.09
2018-12-29T10:38:01.926Z,61.25
2018-12-29T10:40:29.700Z,56.15
2018-12-29T10:43:00.126Z,53.67
2018-12-29T10:45:27.850Z,55.39
2018-12-29T10:47:57.548Z,56.90
2018-12-29T10:50:25.318Z,59.20
2018-12-29T10:52:53.105Z,62.92
2018-12-29T10:55:20.868Z,64.90
2018-12-29T10:57:49.048Z,65.82
2018-12-29T11:00:16.869Z,67.04
2018-12-29T11:02:44.684Z,68.10
2018-12-29T11:05:12.472Z,69.83
2018-12-29T11:07:40.330Z,68.85
2018-12-29T11:10:08.130Z,68.58
2018-12-29T11:12:35.904Z,68.27
2018-12-29T11:15:03.656Z,68.35
2018-12-29T11:17:31.492Z,66.73
2018-12-29T11:19:59.305Z,65.94
2018-12-29T11:22:27.132Z,67.35
2018-12-29T11:24:54.905Z,68.14
2018-12-29T11:27:22.771Z,69.89
2018-12-29T11:29:50.550Z,71.17
2018-12-29T11:32:18.335Z,72.05
2018-12-29T11:34:46.159Z,73.15
2018-12-29T11:37:13.981Z,73.63
2018-12-29T11:39:42.155Z,74.19
2018-12-29T11:42:09.928Z,75.01
2018-12-29T11:44:37.741Z,74.73
2018-12-29T11:47:05.549Z,75.27
2018-12-29T11:49:33.347Z,75.77
2018-12-29T11:52:01.155Z,75.25
2018-12-29T11:54:29.011Z,75.29
2018-12-29T11:56:56.867Z,73.97
2018-12-29T11:59:24.961Z,73.12
2018-12-29T12:01:52.709Z,71.04
2018-12-29T12:04:21.699Z,69.67
2018-12-29T12:06:49.477Z,69.44
2018-12-29T12:09:17.477Z,69.38
2018-12-29T12:11:45.325Z,71.29
2018-12-29T12:14:13.152Z,72.21
2018-12-29T12:16:40.940Z,72.90
2018-12-29T12:19:08.729Z,73.08
2018-12-29T12:21:36.811Z,70.89
2018-12-29T12:24:04.623Z,70.20
2018-12-29T12:26:32.421Z,69.27
2018-12-29T12:29:00.231Z,69.07
2018-12-29T12:31:28.332Z,68.54
2018-12-29T12:33:56.103Z,69.63
2018-12-29T12:36:24.327Z,70.25
2018-12-29T12:38:52.089Z,71.46
2018-12-29T12:41:20.186Z,72.57
2018-12-29T12:43:47.937Z,72.97
2018-12-29T12:46:16.101Z,72.74
2018-12-29T12:48:45.058Z,73.25
2018-12-29T12:51:12.942Z,73.81
2018-12-29T12:53:40.727Z,74.87
2018-12-29T12:56:08.498Z,75.32
2018-12-29T12:58:36.291Z,75.88
2018-12-29T13:01:04.528Z,75.77
2018-12-29T13:03:32.580Z,74.85
2018-12-29T13:06:00.746Z,74.66
2018-12-29T13:08:28.539Z,74.00
2018-12-29T13:10:56.350Z,74.13
2018-12-29T13:13:24.140Z,74.11
2018-12-29T13:15:51.967Z,74.60
2018-12-29T13:18:19.798Z,74.97
2018-12-29T13:20:47.625Z,75.21
2018-12-29T13:23:15.351Z,75.29
2018-12-29T13:25:43.182Z,76.14
2018-12-29T13:28:11.060Z,76.43
2018-12-29T13:30:38.900Z,76.06
2018-12-29T13:33:06.705Z,76.80
2018-12-29T13:35:34.503Z,77.01
2018-12-29T13:38:02.378Z,76.48
2018-12-29T13:40:30.130Z,77.11
2018-12-29T13:42:58.256Z,76.82
2018-12-29T13:45:26.068Z,77.12
2018-12-29T13:47:53.861Z,77.45
2018-12-29T13:50:21.627Z,77.42
2018-12-29T13:52:49.470Z,77.41
2018-12-29T13:55:17.563Z,77.24
2018-12-29T13:57:45.364Z,77.27
2018-12-29T14:00:13.131Z,77.35
2018-12-29T14:02:40.915Z,77.66
2018-12-29T14:05:10.916Z,77.22
2018-12-29T14:07:39.054Z,77.32
2018-12-29T14:10:06.866Z,77.78
2018-12-29T14:12:34.723Z,77.71
2018-12-29T14:15:02.492Z,77.94
2018-12-29T14:17:30.306Z,77.96
2018-12-29T14:19:58.134Z,78.09
2018-12-29T14:22:25.935Z,77.79
2018-12-29T14:24:53.801Z,78.36
2018-12-29T14:27:21.688Z,78.72
2018-12-29T14:29:49.503Z,78.45
2018-12-29T14:32:17.361Z,78.13
2018-12-29T14:34:45.121Z,78.20
2018-12-29T14:37:12.958Z,77.46
2018-12-29T14:39:40.765Z,78.54
2018-12-29T14:42:08.569Z,77.96
2018-12-29T14:44:36.415Z,77.62
2018-12-29T14:47:04.321Z,77.34
2018-12-29T14:49:32.098Z,77.80
2018-12-29T14:52:00.281Z,78.04
2018-12-29T14:54:28.167Z,77.84
2018-12-29T14:56:56.148Z,78.42
2018-12-29T14:59:24.221Z,78.41
2018-12-29T15:01:52.057Z,78.96
2018-12-29T15:04:19.874Z,78.24
2018-12-29T15:06:47.653Z,79.17
2018-12-29T15:09:15.454Z,79.27
2018-12-29T15:11:43.638Z,78.88
2018-12-29T15:14:11.446Z,79.10
2018-12-29T15:16:41.409Z,79.33
2018-12-29T15:19:09.323Z,79.98
2018-12-29T15:21:37.099Z,79.87
2018-12-29T15:24:04.914Z,79.82
2018-12-29T15:26:32.696Z,79.97
2018-12-29T15:29:00.491Z,80.25
2018-12-29T15:31:28.284Z,80.57
2018-12-29T15:33:56.103Z,81.21
2018-12-29T15:36:24.272Z,80.85
2018-12-29T15:38:52.083Z,81.47
2018-12-29T15:41:19.912Z,81.38
2018-12-29T15:43:48.014Z,81.67
2018-12-29T15:46:15.772Z,81.91
2018-12-29T15:48:50.916Z,81.79
2018-12-29T15:51:13.256Z,82.29
2018-12-29T15:53:41.089Z,82.19
2018-12-29T15:56:08.854Z,82.29
2018-12-29T15:58:36.730Z,82.71
2018-12-29T16:01:04.525Z,82.98
2018-12-29T16:03:32.454Z,83.17
2018-12-29T16:06:00.256Z,83.35
2018-12-29T16:08:28.342Z,83.75
2018-12-29T16:10:56.193Z,83.55
2018-12-29T16:13:23.980Z,83.24
2018-12-29T16:15:51.803Z,82.89
2018-12-29T16:18:19.894Z,83.00
2018-12-29T16:20:53.551Z,82.77
2018-12-29T16:23:17.509Z,82.94
2018-12-29T16:25:45.589Z,82.80
2018-12-29T16:28:13.417Z,82.84
2018-12-29T16:30:41.238Z,81.73
2018-12-29T16:33:09.015Z,81.41
2018-12-29T16:35:36.826Z,81.27
2018-12-29T16:38:04.979Z,81.97
2018-12-29T16:40:33.718Z,81.52
2018-12-29T16:43:04.608Z,80.62
2018-12-29T16:45:32.417Z,80.17
2018-12-29T16:48:00.221Z,80.07
2018-12-29T16:50:28.035Z,79.78
2018-12-29T16:52:56.219Z,78.77
2018-12-29T16:55:24.016Z,79.36
2018-12-29T16:57:51.855Z,78.56
2018-12-29T17:00:19.775Z,77.61
2018-12-29T17:02:47.559Z,77.41
2018-12-29T17:05:15.389Z,77.30
2018-12-29T17:07:43.166Z,77.10
2018-12-29T17:10:10.936Z,76.89
2018-12-29T17:12:38.690Z,77.06
2018-12-29T17:15:06.806Z,76.49
2018-12-29T17:17:34.655Z,76.42
2018-12-29T17:20:02.493Z,76.02
2018-12-29T17:22:30.674Z,75.58
2018-12-29T17:24:58.523Z,75.42
2018-12-29T17:27:26.332Z,75.88
2018-12-29T17:29:54.418Z,75.52
2018-12-29T17:32:24.091Z,75.19
2018-12-29T17:34:51.892Z,76.29
2018-12-29T17:37:19.712Z,75.49
2018-12-29T17:39:47.531Z,76.04
2018-12-29T17:42:15.322Z,75.89
2018-12-29T17:44:43.085Z,75.65
2018-12-29T17:47:11.034Z,75.84
2018-12-29T17:49:38.859Z,75.75
2018-12-29T17:52:06.664Z,75.36
2018-12-29T17:54:34.496Z,75.38
2018-12-29T17:57:02.484Z,75.45
2018-12-29T17:59:30.261Z,75.52
2018-12-29T18:01:58.089Z,75.21
2018-12-29T18:04:26.162Z,74.83
2018-12-29T18:06:54.077Z,74.99
2018-12-29T18:09:22.176Z,74.82
2018-12-29T18:11:50.137Z,74.54
2018-12-29T18:14:17.952Z,74.92
2018-12-29T18:16:45.775Z,75.09
2018-12-29T18:19:15.431Z,75.04
2018-12-29T18:21:43.324Z,74.39
2018-12-29T18:24:11.161Z,74.41
2018-12-29T18:26:39.316Z,74.59
2018-12-29T18:29:07.413Z,74.67
2018-12-29T18:31:35.219Z,75.12
2018-12-29T18:34:03.045Z,75.49
2018-12-29T18:36:30.885Z,75.30
2018-12-29T18:38:58.687Z,75.49
2018-12-29T18:41:26.689Z,75.46
2018-12-29T18:43:54.580Z,76.11
2018-12-29T18:46:22.459Z,76.64
2018-12-29T18:48:50.231Z,76.37
2018-12-29T18:51:21.728Z,76.40
2018-12-29T18:53:49.757Z,76.78
2018-12-29T18:56:17.588Z,77.05
2018-12-29T18:58:45.466Z,78.31
2018-12-29T19:01:14.329Z,79.14
2018-12-29T19:03:42.228Z,83.29
2018-12-29T19:06:10.078Z,84.61
2018-12-29T19:08:38.293Z,84.82
2018-12-29T19:11:08.108Z,85.29
2018-12-29T19:13:36.223Z,86.01
2018-12-29T19:16:04.303Z,86.74
2018-12-29T19:18:32.108Z,87.17
2018-12-29T19:21:00.439Z,87.43
2018-12-29T19:23:28.520Z,87.31
2018-12-29T19:25:56.714Z,87.57
2018-12-29T19:28:24.911Z,86.93
2018-12-29T19:30:52.812Z,87.88
2018-12-29T19:33:20.942Z,87.12
2018-12-29T19:35:49.234Z,87.18
2018-12-29T19:38:17.513Z,86.65
2018-12-29T19:40:45.697Z,87.85
2018-12-29T19:43:14.881Z,87.57
2018-12-29T19:45:42.754Z,88.40
2018-12-29T19:48:10.593Z,88.17
2018-12-29T19:50:38.375Z,87.75
2018-12-29T19:53:06.181Z,87.11
2018-12-29T19:55:33.986Z,88.72
2018-12-29T19:58:01.781Z,88.00
2018-12-29T20:00:29.806Z,88.14
2018-12-29T20:02:57.601Z,88.38
2018-12-29T20:05:25.777Z,88.18
2018-12-29T20:07:53.579Z,87.47
2018-12-29T20:10:21.427Z,87.67
2018-12-29T20:12:49.511Z,87.55
2018-12-29T20:15:17.641Z,87.03
2018-12-29T20:17:45.397Z,86.76
2018-12-29T20:20:13.169Z,86.79
2018-12-29T20:22:41.804Z,86.54
2018-12-29T20:25:09.605Z,86.35
2018-12-29T20:27:37.399Z,87.59
2018-12-29T20:30:06.988Z,87.28
2018-12-29T20:32:34.814Z,87.22
2018-12-29T20:35:02.732Z,86.08
2018-12-29T20:37:30.768Z,85.85
2018-12-29T20:39:58.630Z,85.79
2018-12-29T20:42:27.198Z,85.03
2018-12-29T20:44:54.978Z,85.34
2018-12-29T20:47:22.942Z,85.04
2018-12-29T20:49:50.758Z,85.63
2018-12-29T20:52:18.562Z,84.81
2018-12-29T20:54:46.386Z,85.08
2018-12-29T20:57:14.464Z,84.79
2018-12-29T20:59:42.269Z,85.27
2018-12-29T21:02:10.126Z,84.63
2018-12-29T21:04:37.888Z,84.09
2018-12-29T21:07:05.650Z,84.23
2018-12-29T21:09:33.460Z,84.02
2018-12-29T21:12:01.586Z,84.63
2018-12-29T21:14:29.410Z,84.27
2018-12-29T21:16:57.219Z,83.36
2018-12-29T21:19:25.116Z,83.79
2018-12-29T21:21:52.948Z,83.57
2018-12-29T21:24:20.734Z,84.08
2018-12-29T21:26:48.826Z,84.01
2018-12-29T21:29:16.657Z,83.99
2018-12-29T21:31:44.425Z,83.73
2018-12-29T21:34:12.228Z,83.12
2018-12-29T21:36:40.092Z,82.60
2018-12-29T21:39:07.909Z,82.22
2018-12-29T21:41:35.863Z,83.30
2018-12-29T21:44:03.917Z,82.61
2018-12-29T21:46:31.759Z,83.30
2018-12-29T21:48:59.522Z,82.81
2018-12-29T21:51:27.351Z,82.78
2018-12-29T21:53:55.161Z,82.96
2018-12-29T21:56:22.975Z,82.99
2018-12-29T21:58:50.803Z,83.31
2018-12-29T22:01:18.597Z,83.17
2018-12-29T22:03:46.401Z,83.14
2018-12-29T22:06:14.241Z,83.80
2018-12-29T22:08:42.033Z,84.12
2018-12-29T22:11:09.839Z,84.15
2018-12-29T22:13:37.605Z,84.10
2018-12-29T22:16:05.390Z,84.02
2018-12-29T22:18:33.235Z,83.86
2018-12-29T22:21:01.059Z,84.16
2018-12-29T22:23:28.841Z,84.24
2018-12-29T22:25:56.656Z,84.43
2018-12-29T22:28:24.504Z,83.88
2018-12-29T22:30:52.476Z,83.64
2018-12-29T22:33:20.267Z,83.68
2018-12-29T22:35:48.230Z,83.82
2018-12-29T22:38:16.510Z,83.93
2018-12-29T22:40:44.312Z,82.87
2018-12-29T22:43:12.194Z,83.30
2018-12-29T22:45:39.922Z,83.55
2018-12-29T22:48:08.022Z,82.99
2018-12-29T22:50:41.031Z,83.55
2018-12-29T22:53:05.532Z,83.67
2018-12-29T22:55:33.313Z,83.55
2018-12-29T22:58:08.388Z,83.57
2018-12-29T23:00:40.955Z,83.36
2018-12-29T23:03:08.891Z,83.87
2018-12-29T23:05:36.776Z,83.66
2018-12-29T23:08:04.941Z,83.94
2018-12-29T23:10:32.715Z,83.78
2018-12-29T23:13:01.120Z,83.20
2018-12-29T23:15:28.964Z,84.27
2018-12-29T23:17:56.743Z,83.39
2018-12-29T23:20:24.554Z,83.51
2018-12-29T23:22:52.381Z,83.16
2018-12-29T23:25:20.133Z,82.44
2018-12-29T23:27:48.020Z,83.00
2018-12-29T23:30:15.747Z,83.18
2018-12-29T23:32:43.843Z,82.56
2018-12-29T23:35:11.590Z,81.89
2018-12-29T23:37:39.385Z,82.87
2018-12-29T23:40:07.351Z,82.27
2018-12-29T23:42:35.179Z,82.53
2018-12-29T23:45:03.100Z,81.79
2018-12-29T23:47:31.153Z,81.34
2018-12-29T23:49:59.300Z,81.85
2018-12-29T23:52:27.172Z,82.54
2018-12-29T23:54:54.989Z,81.43
2018-12-29T23:57:22.822Z,81.60
2018-12-29T23:59:51.017Z,81.46
